Time;durP1;ratioP1;P1;durP2;ratioP2;P2;SDS_P1;SDS_P2;PMS_P1;PMS_P2;Temp;Humidity;BMP_temperature;BMP_pressure;BME280_temperature;BME280_humidity;BME280_pressure;Samples;Min_cycle;Max_cycle;Signal;HPM_P1;HPM_P2
2023/12/29 00:01:52;;;;;;;10.60;2.53;;;;;;;8.92;100.00;100668.69;6088275;19;20046;-75
2023/12/29 00:04:00;;;;;;;11.02;2.85;;;;;;;8.97;100.00;100646.63;6086044;19;20018;-75
2023/12/29 00:06:05;;;;;;;8.50;2.45;;;;;;;9.06;100.00;100665.56;6082489;19;20020;-75
2023/12/29 00:08:11;;;;;;;8.35;2.60;;;;;;;9.10;100.00;100648.81;6085760;19;21159;-76
2023/12/29 00:10:19;;;;;;;7.82;3.40;;;;;;;9.14;100.00;100634.69;6086772;19;20033;-74
2023/12/29 00:12:27;;;;;;;10.00;3.08;;;;;;;9.17;100.00;100645.91;6087151;19;20021;-74
2023/12/29 00:14:32;;;;;;;9.40;2.35;;;;;;;9.19;100.00;100646.72;6088669;19;20006;-74
2023/12/29 00:16:37;;;;;;;9.68;2.53;;;;;;;9.22;100.00;100643.13;6086527;19;20011;-73
2023/12/29 00:18:42;;;;;;;7.30;3.08;;;;;;;9.31;100.00;100644.53;6086724;19;20034;-70
2023/12/29 00:20:52;;;;;;;12.98;2.53;;;;;;;9.29;100.00;100651.59;6085684;19;20010;-70
2023/12/29 00:23:11;;;;;;;7.88;3.63;;;;;;;9.37;100.00;100637.28;6085541;19;20373;-69
2023/12/29 00:25:16;;;;;;;4.97;2.17;;;;;;;9.40;100.00;100637.16;6087258;19;20038;-71
2023/12/29 00:27:21;;;;;;;9.23;2.90;;;;;;;9.38;100.00;100635.50;6085750;19;20420;-74
2023/12/29 00:29:31;;;;;;;7.05;2.83;;;;;;;9.38;100.00;100622.41;6084906;19;20384;-70
2023/12/29 00:31:36;;;;;;;10.38;2.95;;;;;;;9.37;100.00;100644.28;6086520;19;19998;-73
2023/12/29 00:33:41;;;;;;;10.88;2.83;;;;;;;9.38;100.00;100627.66;6075972;19;20013;-71
2023/12/29 00:35:47;;;;;;;11.05;2.70;;;;;;;9.35;100.00;100625.16;6088592;19;20010;-69
2023/12/29 00:37:55;;;;;;;14.98;3.92;;;;;;;9.38;100.00;100630.28;6086149;19;20010;-70
2023/12/29 00:40:03;;;;;;;10.60;4.18;;;;;;;9.38;100.00;100643.38;6088359;19;20014;-72
2023/12/29 00:42:08;;;;;;;4.07;2.15;;;;;;;9.37;100.00;100636.41;6087531;19;20061;-71
2023/12/29 00:44:13;;;;;;;9.93;2.50;;;;;;;9.38;100.00;100636.38;6085685;19;20044;-69
2023/12/29 00:46:19;;;;;;;11.38;2.50;;;;;;;9.33;100.00;100650.56;6086318;19;20016;-70
2023/12/29 00:48:24;;;;;;;8.40;2.95;;;;;;;9.34;100.00;100640.00;6087066;19;20038;-71
2023/12/29 00:50:29;;;;;;;7.97;3.67;;;;;;;9.33;100.00;100645.31;6085349;19;20011;-73
2023/12/29 00:52:36;;;;;;;12.57;3.65;;;;;;;9.30;100.00;100634.97;6083720;19;20007;-72
2023/12/29 00:54:44;;;;;;;13.90;3.10;;;;;;;9.29;100.00;100638.47;6086954;19;20018;-72
2023/12/29 00:56:51;;;;;;;7.75;2.92;;;;;;;9.26;100.00;100651.72;6086076;19;20019;-75
2023/12/29 00:58:56;;;;;;;6.88;2.90;;;;;;;9.25;100.00;100639.53;6085563;19;20371;-75
2023/12/29 01:01:01;;;;;;;7.72;3.13;;;;;;;9.25;100.00;100634.28;6086189;19;20022;-75
2023/12/29 01:03:07;;;;;;;7.45;2.58;;;;;;;9.25;100.00;100629.03;6087877;19;20022;-71
2023/12/29 01:05:12;;;;;;;7.43;2.63;;;;;;;9.26;100.00;100628.09;6086369;19;20530;-72
2023/12/29 01:07:17;;;;;;;7.03;2.80;;;;;;;9.29;100.00;100639.31;6086201;19;20093;-74
2023/12/29 01:09:22;;;;;;;16.42;3.08;;;;;;;9.31;100.00;100620.94;6087317;19;20388;-76
2023/12/29 01:11:30;;;;;;;9.25;3.47;;;;;;;9.30;100.00;100640.19;6086518;19;20526;-75
2023/12/29 01:13:35;;;;;;;10.60;3.00;;;;;;;9.28;100.00;100615.81;6086602;19;20014;-76
2023/12/29 01:15:44;;;;;;;13.57;3.47;;;;;;;9.28;100.00;100621.91;6084604;19;20006;-76
2023/12/29 01:17:46;;;;;;;5.43;2.90;;;;;;;9.25;100.00;100608.06;6080434;19;20116;-74
2023/12/29 01:19:51;;;;;;;11.05;3.03;;;;;;;9.26;100.00;100612.38;6086028;19;20010;-76
2023/12/29 01:21:57;;;;;;;9.85;2.63;;;;;;;9.27;100.00;100629.81;6082390;19;20010;-76
2023/12/29 01:24:03;;;;;;;8.13;2.42;;;;;;;9.29;100.00;100620.13;6083813;19;20391;-76
2023/12/29 01:26:09;;;;;;;8.60;3.15;;;;;;;9.29;100.00;100614.88;6083663;19;20432;-76
2023/12/29 01:28:20;;;;;;;10.07;2.83;;;;;;;9.28;100.00;100640.25;6085388;19;20437;-76
2023/12/29 01:30:26;;;;;;;10.80;2.83;;;;;;;9.31;100.00;100637.50;6084244;19;20082;-74
2023/12/29 01:32:31;;;;;;;9.73;3.30;;;;;;;9.32;100.00;100622.63;6082623;19;20003;-72
2023/12/29 01:34:36;;;;;;;10.85;2.70;;;;;;;9.30;100.00;100633.19;6082547;19;20046;-73
2023/12/29 01:36:42;;;;;;;10.07;2.92;;;;;;;9.30;100.00;100630.56;6083843;19;20028;-73
2023/12/29 01:38:47;;;;;;;12.40;3.63;;;;;;;9.27;100.00;100632.44;6080667;19;20585;-73
2023/12/29 01:40:50;;;;;;;11.85;3.10;;;;;;;9.27;100.00;100620.19;6082926;19;20066;-73
2023/12/29 01:42:55;;;;;;;10.95;3.97;;;;;;;9.26;100.00;100605.34;6085174;19;20366;-73
2023/12/29 01:45:03;;;;;;;15.10;3.45;;;;;;;9.21;100.00;100620.41;6084217;19;20455;-73
2023/12/29 01:47:15;;;;;;;14.68;4.20;;;;;;;9.20;100.00;100622.19;6079606;19;20014;-74
2023/12/29 01:49:23;;;;;;;9.85;3.00;;;;;;;9.14;100.00;100622.44;6081695;19;20574;-72
2023/12/29 01:51:30;;;;;;;11.07;3.10;;;;;;;9.17;100.00;100630.19;6081720;19;20531;-74
2023/12/29 01:53:42;;;;;;;13.02;3.55;;;;;;;9.14;100.00;100632.91;6078555;19;20127;-73
2023/12/29 01:55:52;;;;;;;9.52;3.22;;;;;;;9.15;100.00;100636.38;6079774;19;20007;-72
2023/12/29 01:58:00;;;;;;;8.90;3.33;;;;;;;9.16;100.00;100631.09;6081175;19;20375;-73
2023/12/29 02:00:10;;;;;;;11.43;3.47;;;;;;;9.16;100.00;100651.19;6079429;19;20022;-73
2023/12/29 02:02:15;;;;;;;12.38;3.60;;;;;;;9.15;100.00;100639.84;6081638;19;20011;-74
2023/12/29 02:04:19;;;;;;;9.93;3.70;;;;;;;9.14;100.00;100650.41;6081784;19;20029;-71
2023/12/29 02:06:24;;;;;;;10.05;3.97;;;;;;;9.13;100.00;100646.91;6081698;19;20479;-72
2023/12/29 02:08:31;;;;;;;8.30;3.28;;;;;;;9.13;100.00;100649.53;6080854;19;20500;-72
2023/12/29 02:10:36;;;;;;;6.18;2.92;;;;;;;9.15;100.00;100650.34;6080122;19;20036;-74
2023/12/29 02:12:41;;;;;;;8.55;3.70;;;;;;;9.14;100.00;100653.88;6080561;19;20014;-73
2023/12/29 02:14:46;;;;;;;8.00;3.45;;;;;;;9.11;100.00;100664.50;6080121;19;20819;-74
2023/12/29 02:17:04;;;;;;;9.13;3.50;;;;;;;9.07;100.00;100662.03;6079621;19;20416;-75
2023/12/29 02:19:19;;;;;;;8.48;3.00;;;;;;;9.07;100.00;100664.66;6081087;19;20023;-73
2023/12/29 02:21:26;;;;;;;11.27;3.60;;;;;;;9.05;100.00;100672.56;6081507;19;20003;-74
2023/12/29 02:23:32;;;;;;;12.55;4.70;;;;;;;9.02;100.00;100678.78;6079922;19;20030;-72
2023/12/29 02:25:40;;;;;;;14.60;4.65;;;;;;;9.05;100.00;100685.66;6080307;19;21256;-73
2023/12/29 02:27:54;;;;;;;14.75;4.65;;;;;;;9.08;100.00;100668.97;6081296;19;20518;-75
2023/12/29 02:30:08;;;;;;;8.23;3.55;;;;;;;9.08;100.00;100668.97;6076117;19;20521;-74
2023/12/29 02:32:19;;;;;;;10.63;3.58;;;;;;;9.07;100.00;100660.25;6079074;19;20041;-74
2023/12/29 02:34:30;;;;;;;8.82;3.38;;;;;;;9.22;100.00;100664.94;6079110;19;20106;-74
2023/12/29 02:36:42;;;;;;;13.43;3.60;;;;;;;9.26;100.00;100656.94;6082084;19;20091;-75
2023/12/29 02:38:49;;;;;;;18.45;4.60;;;;;;;9.27;100.00;100658.66;6081045;19;20573;-75
2023/12/29 02:40:57;;;;;;;16.92;3.90;;;;;;;9.24;100.00;100657.00;6078583;19;20023;-74
2023/12/29 02:43:02;;;;;;;17.98;4.57;;;;;;;9.27;100.00;100658.66;6079298;19;20014;-75
2023/12/29 02:45:10;;;;;;;11.77;3.85;;;;;;;9.22;100.00;100671.97;6081652;19;20418;-75
2023/12/29 02:47:19;;;;;;;12.48;4.38;;;;;;;9.16;100.00;100678.28;6080623;19;20030;-73
2023/12/29 02:49:27;;;;;;;9.55;3.47;;;;;;;9.16;100.00;100672.16;6079372;19;20716;-72
2023/12/29 02:51:33;;;;;;;11.23;3.50;;;;;;;9.16;100.00;100675.66;6079758;19;20307;-73
2023/12/29 02:53:41;;;;;;;7.25;2.60;;;;;;;9.16;100.00;100674.78;6077463;19;20011;-74
2023/12/29 02:55:46;;;;;;;18.08;4.13;;;;;;;9.17;100.00;100659.00;6078724;19;20010;-72
2023/12/29 02:57:54;;;;;;;10.07;2.50;;;;;;;9.22;100.00;100680.66;6080447;19;20016;-74
2023/12/29 02:59:59;;;;;;;19.25;3.92;;;;;;;9.25;100.00;100676.22;6076966;19;20565;-76
2023/12/29 03:02:05;;;;;;;10.75;3.42;;;;;;;9.29;100.00;100668.16;6077871;19;20062;-75
2023/12/29 03:04:07;;;;;;;16.58;3.38;;;;;;;9.31;100.00;100662.88;6077959;19;20010;-74
2023/12/29 03:06:12;;;;;;;17.13;2.97;;;;;;;9.35;100.00;100644.34;6080691;19;20014;-75
2023/12/29 03:08:17;;;;;;;17.80;3.92;;;;;;;9.34;100.00;100660.13;6077124;19;20006;-75
2023/12/29 03:10:22;;;;;;;16.15;3.78;;;;;;;9.38;100.00;100646.84;6079405;19;20129;-75
2023/12/29 03:12:25;;;;;;;10.40;2.92;;;;;;;9.42;100.00;100642.34;6075141;19;20013;-75
2023/12/29 03:14:32;;;;;;;29.33;5.40;;;;;;;9.46;100.00;100646.56;6078676;19;20094;-74
2023/12/29 03:16:37;;;;;;;23.83;4.13;;;;;;;9.49;100.00;100638.56;6078784;19;20014;-75
2023/12/29 03:18:44;;;;;;;22.13;3.67;;;;;;;9.53;100.00;100639.28;6075650;19;20534;-74
2023/12/29 03:20:52;;;;;;;23.48;4.25;;;;;;;9.56;100.00;100628.69;6080171;19;20011;-75
2023/12/29 03:22:57;;;;;;;29.35;4.38;;;;;;;9.64;100.00;100619.59;6079559;19;20009;-75
2023/12/29 03:25:02;;;;;;;16.45;4.22;;;;;;;9.65;100.00;100623.91;6078219;19;20058;-74
2023/12/29 03:27:07;;;;;;;19.00;4.25;;;;;;;9.61;100.00;100630.22;6080586;19;20019;-75
2023/12/29 03:29:13;;;;;;;18.88;5.10;;;;;;;9.66;100.00;100638.75;6081526;19;20003;-76
2023/12/29 03:31:22;;;;;;;22.30;3.83;;;;;;;9.68;100.00;100636.91;6078759;19;20023;-73
2023/12/29 03:33:25;;;;;;;22.95;5.55;;;;;;;9.63;100.00;100633.63;6076196;19;20006;-72
2023/12/29 03:35:31;;;;;;;15.18;4.03;;;;;;;9.64;100.00;100637.97;6080034;19;20023;-73
2023/12/29 03:37:36;;;;;;;18.38;5.07;;;;;;;9.60;100.00;100639.00;6079108;19;20367;-76
2023/12/29 03:39:41;;;;;;;14.73;3.58;;;;;;;9.64;100.00;100637.97;6080647;19;20006;-76
2023/12/29 03:41:44;;;;;;;23.52;3.95;;;;;;;9.70;100.00;100630.75;6082702;19;20419;-72
2023/12/29 03:43:49;;;;;;;14.68;3.47;;;;;;;9.67;100.00;100632.59;6082387;19;20519;-72
2023/12/29 03:45:54;;;;;;;12.90;3.90;;;;;;;9.65;100.00;100644.91;6083586;19;19999;-72
2023/12/29 03:48:02;;;;;;;18.42;3.35;;;;;;;9.64;100.00;100627.47;6085402;19;20014;-72
2023/12/29 03:50:10;;;;;;;19.20;4.22;;;;;;;9.63;100.00;100625.75;6086766;19;20014;-72
2023/12/29 03:52:15;;;;;;;33.28;5.78;;;;;;;9.62;100.00;100610.09;6080493;19;20493;-71
2023/12/29 03:54:21;;;;;;;21.80;4.68;;;;;;;9.62;100.00;100618.81;6084469;19;20015;-73
2023/12/29 03:56:26;;;;;;;16.88;4.18;;;;;;;9.64;100.00;100621.38;6087078;19;20007;-77
2023/12/29 03:58:33;;;;;;;16.75;3.95;;;;;;;9.68;100.00;100623.78;6081974;19;20086;-75
2023/12/29 04:00:41;;;;;;;19.33;4.97;;;;;;;9.70;100.00;100634.25;6084345;19;20464;-76
2023/12/29 04:02:47;;;;;;;19.00;4.18;;;;;;;9.76;100.00;100631.34;6085270;19;20368;-76
2023/12/29 04:04:55;;;;;;;18.38;4.32;;;;;;;9.81;100.00;100625.94;6085025;19;20106;-76
2023/12/29 04:06:58;;;;;;;21.23;4.47;;;;;;;9.78;100.00;100629.53;6087216;19;20014;-76
2023/12/29 04:09:03;;;;;;;27.42;4.53;;;;;;;9.77;100.00;100621.72;6086179;19;20006;-74
2023/12/29 04:11:09;;;;;;;20.23;4.97;;;;;;;9.77;100.00;100626.97;6085645;19;20014;-72
2023/12/29 04:13:13;;;;;;;19.75;4.95;;;;;;;9.76;100.00;100635.75;6083507;19;20042;-73
2023/12/29 04:15:18;;;;;;;22.83;5.55;;;;;;;9.75;100.00;100626.19;6083714;19;20361;-74
2023/12/29 04:17:23;;;;;;;18.35;5.00;;;;;;;9.75;100.00;100626.19;6084843;19;20006;-74
2023/12/29 04:19:28;;;;;;;20.25;4.13;;;;;;;9.79;100.00;100630.38;6083956;19;20142;-70
2023/12/29 04:21:34;;;;;;;20.85;4.25;;;;;;;9.77;100.00;100637.44;6084787;19;20014;-73
2023/12/29 04:23:41;;;;;;;24.50;4.40;;;;;;;9.72;100.00;100626.31;6084696;19;20238;-74
2023/12/29 04:25:46;;;;;;;19.92;5.05;;;;;;;9.71;100.00;100632.47;6086464;19;20003;-72
2023/12/29 04:27:51;;;;;;;23.50;5.10;;;;;;;9.67;100.00;100622.09;6084386;19;20011;-74
2023/12/29 04:29:59;;;;;;;22.67;3.80;;;;;;;9.60;100.00;100633.75;6084650;19;20010;-72
2023/12/29 04:32:06;;;;;;;21.70;4.95;;;;;;;9.65;100.00;100633.56;6085228;19;20065;-74
2023/12/29 04:34:12;;;;;;;27.70;6.05;;;;;;;9.65;100.00;100636.19;6086767;19;20003;-73
2023/12/29 04:36:17;;;;;;;23.92;4.50;;;;;;;9.64;100.00;100613.50;6086743;19;19999;-76
2023/12/29 04:38:25;;;;;;;19.75;4.50;;;;;;;9.64;100.00;100619.59;6079230;19;20011;-77
2023/12/29 04:40:31;;;;;;;19.98;3.67;;;;;;;9.62;100.00;100616.19;6085270;19;20017;-75
2023/12/29 04:42:34;;;;;;;20.00;4.40;;;;;;;9.60;100.00;100607.50;6085618;19;20582;-75
2023/12/29 04:44:39;;;;;;;28.65;5.18;;;;;;;9.60;100.00;100604.03;6085075;19;20315;-73
2023/12/29 04:46:46;;;;;;;18.33;3.92;;;;;;;9.63;100.00;100617.03;6085511;19;20007;-73
2023/12/29 04:48:51;;;;;;;23.60;4.75;;;;;;;9.61;100.00;100604.00;6082662;19;20276;-75
2023/12/29 04:50:56;;;;;;;21.33;5.68;;;;;;;9.60;100.00;100615.38;6083166;19;20010;-75
2023/12/29 04:52:58;;;;;;;15.32;3.90;;;;;;;9.63;100.00;100612.63;6082249;19;20068;-73
2023/12/29 04:55:07;;;;;;;21.73;4.07;;;;;;;9.60;100.00;100612.75;6083786;19;20015;-75
2023/12/29 04:57:12;;;;;;;17.75;3.97;;;;;;;9.59;100.00;100618.94;6084414;19;20007;-74
2023/12/29 04:59:17;;;;;;;17.92;3.45;;;;;;;9.57;100.00;100609.41;6083868;19;20019;-75
2023/12/29 05:01:19;;;;;;;25.77;4.30;;;;;;;9.57;100.00;100618.13;6083586;19;20034;-74
2023/12/29 05:03:25;;;;;;;;;;;;;;;9.63;100.00;100615.25;6083482;19;20006;-75
2023/12/29 05:05:32;;;;;;;20.67;4.18;;;;;;;9.63;100.00;100630.13;6081065;19;20343;-75
2023/12/29 05:07:39;;;;;;;28.70;4.18;;;;;;;9.64;100.00;100632.72;6082345;19;20014;-75
2023/12/29 05:09:41;;;;;;;15.20;3.40;;;;;;;9.71;100.00;100624.59;6082997;19;20025;-75
2023/12/29 05:11:52;;;;;;;15.80;4.32;;;;;;;9.73;100.00;100631.47;6083615;19;20435;-76
2023/12/29 05:13:57;;;;;;;29.15;4.70;;;;;;;9.70;100.00;100615.88;6084405;19;20034;-75
2023/12/29 05:16:07;;;;;;;21.90;5.95;;;;;;;9.66;100.00;100625.66;6082801;19;20467;-75
2023/12/29 05:18:12;;;;;;;17.17;3.42;;;;;;;9.63;100.00;100620.50;6082121;19;20010;-75
2023/12/29 05:20:17;;;;;;;17.95;3.90;;;;;;;9.63;100.00;100610.00;6083828;19;20007;-75
2023/12/29 05:22:20;;;;;;;20.92;4.03;;;;;;;9.61;100.00;100604.00;6081832;19;20026;-74
2023/12/29 05:24:26;;;;;;;21.15;4.30;;;;;;;9.63;100.00;100602.13;6084299;19;20002;-76
2023/12/29 05:26:29;;;;;;;20.85;4.95;;;;;;;9.65;100.00;100596.84;6083666;19;20042;-74
2023/12/29 05:28:37;;;;;;;31.52;4.10;;;;;;;9.62;100.00;100604.84;6079995;19;20041;-75
2023/12/29 05:30:42;;;;;;;21.20;3.88;;;;;;;9.65;100.00;100608.19;6082575;19;20330;-75
2023/12/29 05:32:49;;;;;;;13.80;3.78;;;;;;;9.64;100.00;100610.88;6083580;19;20515;-73
2023/12/29 05:34:56;;;;;;;14.82;3.33;;;;;;;9.66;100.00;100620.41;6081820;19;20010;-73
2023/12/29 05:37:10;;;;;;;17.88;3.75;;;;;;;9.61;100.00;100624.09;6083298;19;20011;-73
2023/12/29 05:39:14;;;;;;;12.05;2.95;;;;;;;9.62;100.00;100608.31;6083720;19;20245;-74
2023/12/29 05:41:23;;;;;;;16.45;2.97;;;;;;;9.60;100.00;100609.28;6083939;19;20023;-74
2023/12/29 05:43:28;;;;;;;19.20;3.28;;;;;;;9.64;100.00;100618.75;6085277;19;20010;-75
2023/12/29 05:45:36;;;;;;;12.73;2.80;;;;;;;9.63;100.00;100612.63;6084117;19;20022;-75
2023/12/29 05:47:39;;;;;;;15.90;3.20;;;;;;;9.64;100.00;100606.47;6084351;19;20329;-77
2023/12/29 05:49:44;;;;;;;13.23;2.72;;;;;;;9.62;100.00;100605.69;6084476;19;20006;-75
2023/12/29 05:51:50;;;;;;;19.45;3.63;;;;;;;9.59;100.00;100597.94;6085628;19;20420;-74
2023/12/29 05:53:55;;;;;;;16.85;3.25;;;;;;;9.54;100.00;100610.38;6080101;19;20580;-75
2023/12/29 05:56:00;;;;;;;18.00;2.78;;;;;;;9.57;100.00;100599.75;6084738;19;20485;-75
2023/12/29 05:58:06;;;;;;;19.80;3.58;;;;;;;9.56;100.00;100599.84;6080500;19;20006;-75
2023/12/29 06:00:14;;;;;;;16.67;3.33;;;;;;;9.51;100.00;100594.78;6084334;19;20007;-74
2023/12/29 06:02:24;;;;;;;12.50;3.53;;;;;;;9.50;100.00;100598.28;6083521;19;20354;-76
2023/12/29 06:04:29;;;;;;;17.17;3.60;;;;;;;9.48;100.00;100594.91;6080847;19;20032;-74
2023/12/29 06:06:32;;;;;;;11.13;3.40;;;;;;;9.50;100.00;100582.56;6082292;19;20018;-75
2023/12/29 06:08:39;;;;;;;20.38;3.05;;;;;;;9.55;100.00;100593.72;6081572;19;20042;-74
2023/12/29 06:10:45;;;;;;;14.90;3.17;;;;;;;9.54;100.00;100591.19;6082731;19;20412;-75
2023/12/29 06:12:48;;;;;;;15.15;3.22;;;;;;;9.59;100.00;100603.19;6080631;19;20096;-75
2023/12/29 06:14:53;;;;;;;15.43;3.15;;;;;;;9.62;100.00;100597.81;6083683;19;20027;-73
2023/12/29 06:17:00;;;;;;;12.07;3.20;;;;;;;9.59;100.00;100591.84;6082594;19;20037;-75
2023/12/29 06:19:08;;;;;;;10.63;2.45;;;;;;;9.63;100.00;100586.38;6083017;19;20019;-75
2023/12/29 06:21:15;;;;;;;10.90;3.10;;;;;;;9.67;100.00;100585.38;6082833;19;20006;-74
2023/12/29 06:23:23;;;;;;;12.23;3.85;;;;;;;9.64;100.00;100585.50;6082683;19;20244;-74
2023/12/29 06:25:28;;;;;;;11.48;2.17;;;;;;;9.64;100.00;100585.50;6081108;19;20031;-75
2023/12/29 06:27:37;;;;;;;7.38;2.72;;;;;;;9.64;100.00;100582.88;6081004;19;20023;-75
2023/12/29 06:29:45;;;;;;;14.45;2.88;;;;;;;9.62;100.00;100583.84;6082788;19;20038;-75
2023/12/29 06:31:50;;;;;;;17.83;3.65;;;;;;;9.66;100.00;100577.53;6081238;19;20572;-75
2023/12/29 06:33:56;;;;;;;15.38;3.40;;;;;;;9.59;100.00;100573.47;6081557;19;20465;-76
2023/12/29 06:36:06;;;;;;;14.35;2.53;;;;;;;9.58;100.00;100580.47;6083630;19;20454;-75
2023/12/29 06:38:13;;;;;;;11.02;2.70;;;;;;;9.58;100.00;100584.88;6082640;19;20367;-75
2023/12/29 06:40:23;;;;;;;10.20;2.45;;;;;;;9.58;100.00;100590.97;6084458;19;20147;-75
2023/12/29 06:42:30;;;;;;;13.40;2.97;;;;;;;9.59;100.00;100592.69;6081795;19;20019;-75
2023/12/29 06:44:36;;;;;;;7.38;2.67;;;;;;;9.57;100.00;100594.53;6080108;19;20030;-73
2023/12/29 06:46:42;;;;;;;11.80;2.72;;;;;;;9.55;100.00;100588.47;6081408;19;20011;-75
2023/12/29 06:48:48;;;;;;;8.65;2.40;;;;;;;9.51;100.00;100586.91;6081609;19;20459;-74
2023/12/29 06:50:54;;;;;;;7.55;2.33;;;;;;;9.51;100.00;100592.16;6080734;19;20010;-74
2023/12/29 06:53:06;;;;;;;8.02;2.67;;;;;;;9.52;100.00;100587.75;6079957;19;20011;-75
2023/12/29 06:55:13;;;;;;;8.40;2.80;;;;;;;9.48;100.00;100589.66;6080157;19;20011;-73
2023/12/29 06:57:21;;;;;;;7.35;3.22;;;;;;;9.45;100.00;100589.75;6081838;19;20104;-74
2023/12/29 06:59:26;;;;;;;6.90;2.33;;;;;;;9.42;100.00;100588.09;6079748;19;20023;-75
2023/12/29 07:01:35;;;;;;;8.43;2.38;;;;;;;9.40;100.00;100579.47;6081496;19;20014;-74
2023/12/29 07:03:41;;;;;;;7.88;2.45;;;;;;;9.40;100.00;100597.81;6082855;19;20078;-75
2023/12/29 07:05:53;;;;;;;11.02;2.47;;;;;;;9.47;100.00;100601.03;6080863;19;20006;-74
2023/12/29 07:07:58;;;;;;;8.57;2.63;;;;;;;9.46;100.00;100594.09;6082831;19;20003;-75
2023/12/29 07:10:08;;;;;;;8.90;2.42;;;;;;;9.52;100.00;100604.34;6082674;19;20017;-74
2023/12/29 07:12:15;;;;;;;9.82;3.42;;;;;;;9.53;100.00;100606.06;6081132;19;20031;-76
2023/12/29 07:14:23;;;;;;;12.32;3.67;;;;;;;9.58;100.00;100595.38;6081283;19;20011;-74
2023/12/29 07:16:29;;;;;;;13.18;2.78;;;;;;;9.58;100.00;100593.59;6085248;19;20243;-74
2023/12/29 07:18:34;;;;;;;9.25;2.95;;;;;;;9.58;100.00;100574.38;6087449;19;20033;-75
2023/12/29 07:20:40;;;;;;;12.18;3.30;;;;;;;9.60;100.00;100594.38;6085375;19;20496;-75
2023/12/29 07:22:47;;;;;;;12.55;3.55;;;;;;;9.62;100.00;100584.69;6084427;19;20010;-74
2023/12/29 07:24:50;;;;;;;12.98;2.83;;;;;;;9.63;100.00;100583.75;6090093;19;20078;-74
2023/12/29 07:26:58;;;;;;;14.30;3.17;;;;;;;9.64;100.00;100587.28;6086205;19;20029;-75
2023/12/29 07:29:03;;;;;;;10.68;2.70;;;;;;;9.70;100.00;100586.16;6087339;19;20408;-75
2023/12/29 07:31:09;;;;;;;8.85;2.88;;;;;;;9.71;100.00;100583.47;6085428;19;20018;-75
2023/12/29 07:33:16;;;;;;;6.80;2.50;;;;;;;9.73;100.00;100584.25;6085558;19;20010;-74
2023/12/29 07:35:22;;;;;;;7.80;2.15;;;;;;;9.72;100.00;100584.34;6084885;19;20013;-74
2023/12/29 07:37:27;;;;;;;8.80;2.75;;;;;;;9.74;100.00;100582.47;6086014;19;20010;-75
2023/12/29 07:39:32;;;;;;;10.50;3.47;;;;;;;9.72;100.00;100589.59;6087410;19;20078;-75
2023/12/29 07:41:40;;;;;;;9.82;3.15;;;;;;;9.69;100.00;100593.19;6086633;19;20019;-74
2023/12/29 07:43:52;;;;;;;9.85;3.20;;;;;;;9.74;100.00;100595.59;6086327;19;20452;-74
2023/12/29 07:46:00;;;;;;;11.30;2.60;;;;;;;9.74;100.00;100600.84;6087483;19;20038;-76
2023/12/29 07:48:06;;;;;;;6.05;2.20;;;;;;;9.76;100.00;100578.03;6084929;19;20430;-75
2023/12/29 07:50:15;;;;;;;9.63;3.90;;;;;;;9.71;100.00;100590.47;6085787;19;20023;-73
2023/12/29 07:52:24;;;;;;;7.25;2.92;;;;;;;9.71;100.00;100603.59;6084553;19;20018;-76
2023/12/29 07:54:27;;;;;;;8.80;3.33;;;;;;;9.79;100.00;100588.38;6084513;19;20033;-76
2023/12/29 07:56:36;;;;;;;5.05;2.10;;;;;;;9.76;100.00;100593.78;6086498;19;20014;-76
2023/12/29 07:58:42;;;;;;;10.07;2.72;;;;;;;9.64;100.00;100589.88;6088118;19;20014;-75
2023/12/29 08:00:53;;;;;;;6.20;2.75;;;;;;;9.60;100.00;100602.25;6080584;19;20020;-76
2023/12/29 08:02:59;;;;;;;8.18;2.40;;;;;;;9.62;100.00;100597.81;6086968;19;20014;-76
2023/12/29 08:05:05;;;;;;;9.85;3.45;;;;;;;9.62;100.00;100603.06;6087216;19;20011;-76
2023/12/29 08:07:13;;;;;;;11.40;2.63;;;;;;;9.55;100.00;100601.59;6088010;19;21867;-75
2023/12/29 08:09:23;;;;;;;6.32;2.53;;;;;;;9.51;100.00;100607.88;6083899;19;20021;-75
2023/12/29 08:11:28;;;;;;;7.25;3.20;;;;;;;9.52;100.00;100609.59;6087525;19;20442;-76
2023/12/29 08:13:30;;;;;;;7.50;2.55;;;;;;;9.53;100.00;100608.69;6088069;19;20015;-77
2023/12/29 08:15:35;;;;;;;8.18;2.05;;;;;;;9.50;100.00;100613.19;6087792;19;20368;-74
2023/12/29 08:17:45;;;;;;;3.58;2.30;;;;;;;9.48;100.00;100629.00;6086472;19;20020;-76
2023/12/29 08:19:51;;;;;;;5.70;2.30;;;;;;;9.54;100.00;100606.91;6087249;19;20499;-76
2023/12/29 08:21:56;;;;;;;7.75;2.67;;;;;;;9.53;100.00;100627.06;6087081;19;20897;-75
2023/12/29 08:24:02;;;;;;;5.85;1.98;;;;;;;9.55;100.00;100626.97;6085764;19;20042;-76
2023/12/29 08:26:12;;;;;;;11.27;2.55;;;;;;;9.56;100.00;100619.06;6083132;19;20015;-74
2023/12/29 08:28:18;;;;;;;7.13;2.50;;;;;;;9.56;100.00;100613.81;6086808;19;20430;-75
2023/12/29 08:30:26;;;;;;;3.58;2.13;;;;;;;9.60;100.00;100615.38;6084796;19;20481;-76
2023/12/29 08:32:28;;;;;;;5.97;2.38;;;;;;;9.62;100.00;100621.44;6084805;19;20006;-74
2023/12/29 08:34:39;;;;;;;8.07;2.38;;;;;;;9.57;100.00;100612.88;6086990;19;20014;-74
2023/12/29 08:36:48;;;;;;;7.30;2.60;;;;;;;9.57;100.00;100612.88;6086213;19;20462;-74
2023/12/29 08:38:52;;;;;;;4.60;2.40;;;;;;;9.63;100.00;100596.88;6078464;19;20462;-75
2023/12/29 08:40:58;;;;;;;8.10;2.75;;;;;;;9.68;100.00;100625.56;6082947;19;20475;-76
2023/12/29 08:43:03;;;;;;;10.50;3.15;;;;;;;9.66;100.00;100625.66;6084214;19;20045;-74
2023/12/29 08:45:13;;;;;;;4.70;2.00;;;;;;;9.68;100.00;100609.81;6086307;19;20014;-73
2023/12/29 08:47:22;;;;;;;7.90;2.00;;;;;;;9.68;100.00;100625.56;6085798;19;20082;-77
2023/12/29 08:49:29;;;;;;;5.95;2.67;;;;;;;9.70;100.00;100628.13;6087025;19;20040;-77
2023/12/29 08:51:37;;;;;;;6.30;2.17;;;;;;;9.72;100.00;100614.03;6087031;19;20026;-74
2023/12/29 08:53:45;;;;;;;7.25;2.38;;;;;;;9.73;100.00;100633.25;6083982;19;20006;-73
2023/12/29 08:55:51;;;;;;;7.97;2.20;;;;;;;9.73;100.00;100625.38;6082519;19;20011;-76
2023/12/29 08:57:56;;;;;;;17.35;2.80;;;;;;;9.74;100.00;100629.72;6084837;19;20017;-76
2023/12/29 09:00:03;;;;;;;11.23;2.90;;;;;;;9.77;100.00;100638.34;6082765;19;20106;-76
2023/12/29 09:02:09;;;;;;;4.53;2.00;;;;;;;9.78;100.00;100636.56;6086361;19;20006;-76
2023/12/29 09:04:23;;;;;;;6.97;1.92;;;;;;;9.82;100.00;100630.25;6084701;19;20034;-76
2023/12/29 09:06:29;;;;;;;9.60;2.50;;;;;;;9.81;100.00;100623.31;6084647;19;20019;-77
2023/12/29 09:08:39;;;;;;;3.63;1.80;;;;;;;9.79;100.00;100636.47;6085484;19;20011;-74
2023/12/29 09:10:45;;;;;;;5.38;2.15;;;;;;;9.81;100.00;100636.44;6084453;19;20081;-75
2023/12/29 09:12:55;;;;;;;7.57;2.35;;;;;;;9.79;100.00;100636.47;6086739;19;20014;-77
2023/12/29 09:15:01;;;;;;;8.43;2.28;;;;;;;9.81;100.00;100642.53;6086133;19;20011;-76
2023/12/29 09:17:07;;;;;;;7.88;1.90;;;;;;;9.81;100.00;100658.28;6086962;19;20014;-76
2023/12/29 09:19:13;;;;;;;6.82;1.85;;;;;;;9.82;100.00;100653.88;6086543;19;20014;-77
2023/12/29 09:21:34;;;;;;;7.35;1.67;;;;;;;9.86;100.00;100653.69;5981022;19;2005089;-76
2023/12/29 09:23:42;;;;;;;7.07;2.33;;;;;;;9.85;100.00;100656.41;6082844;19;20775;-77
2023/12/29 09:25:50;;;;;;;4.65;1.67;;;;;;;9.86;100.00;100648.44;6080310;19;20025;-74
2023/12/29 09:27:55;;;;;;;13.85;2.58;;;;;;;9.87;100.00;100655.41;6083718;19;20079;-75
2023/12/29 09:30:02;;;;;;;10.25;2.58;;;;;;;9.87;100.00;100658.03;6083449;19;20317;-74
2023/12/29 09:32:09;;;;;;;5.00;2.15;;;;;;;9.91;100.00;100655.28;6081807;19;20015;-75
2023/12/29 09:34:19;;;;;;;9.48;3.17;;;;;;;9.97;100.00;100650.63;6085217;19;20081;-74
2023/12/29 09:36:25;;;;;;;5.70;2.25;;;;;;;9.98;100.00;100644.47;6082867;19;20007;-76
2023/12/29 09:38:33;;;;;;;8.10;2.53;;;;;;;10.00;100.00;100653.13;6080408;19;20552;-75
2023/12/29 09:40:42;;;;;;;13.27;3.08;;;;;;;10.00;100.00;100660.16;6083762;19;20372;-74
2023/12/29 09:42:51;;;;;;;12.82;2.95;;;;;;;10.00;100.00;100655.75;6084296;19;20007;-75
2023/12/29 09:44:56;;;;;;;9.82;2.70;;;;;;;10.04;100.00;100675.72;6083387;19;20377;-74